This is the latest recevied weather packets stored in our database for station/object DH0DM-13. If no packets are shown the sender has not sent any weather packets the latest 10 day(s).
| Time | Temp. | Humidity | Pressure | Rain* | Wind** | Luminosity | Snow |
|---|---|---|---|---|---|---|---|
| 1787585747 | 18.89° C | 57% | 995.2 hPa | 0 mm | 0 m/s | - | - |
| 1787585146 | 19.44° C | 55% | 995.2 hPa | 0 mm | 1.34 m/s, 116° | - | - |
| 1787584546 | 20.56° C | 52% | 995.3 hPa | 0 mm | 0.89 m/s, 242° | - | - |
| 1787583945 | 20.56° C | 52% | 995.4 hPa | 0 mm | 0.89 m/s, 285° | - | - |
| 1787583344 | 21.11° C | 49% | 995.3 hPa | 0 mm | 0 m/s | - | - |
| 1787582743 | 21.11° C | 49% | 995.5 hPa | 0 mm | 0 m/s | - | - |
| 1787582142 | 20.56° C | 50% | 995.7 hPa | 0 mm | 2.68 m/s, 319° | - | - |
| 1787581541 | 19.44° C | 54% | 995.6 hPa | 0 mm | 0 m/s | - | - |
| 1787580940 | 19.44° C | 56% | 995.8 hPa | 0 mm | 0 m/s | - | - |
| 1787580339 | 19.44° C | 55% | 995.7 hPa | 0 mm | 1.79 m/s, 240° | - | - |
| 1787579738 | 21.67° C | 51% | 996 hPa | 0 mm | 3.58 m/s, 321° | - | - |
| 1787579137 | 20.56° C | 49% | 996 hPa | 0 mm | 0.45 m/s, 326° | - | - |
| 1787578536 | 20.56° C | 52% | 996 hPa | 0 mm | 2.24 m/s, 125° | - | - |
| 1787577935 | 19.44° C | 55% | 996.2 hPa | 0 mm | 0 m/s | - | - |
| 1787577334 | 18.33° C | 60% | 996.3 hPa | 0 mm | 1.34 m/s, 238° | - | - |
| 1787576733 | 18.89° C | 54% | 996.4 hPa | 0 mm | 1.79 m/s, 69° | - | - |
| 1787576132 | 18.89° C | 54% | 996.4 hPa | 0 mm | 0 m/s | - | - |
| 1787575532 | 18.89° C | 58% | 996.5 hPa | 0 mm | 0 m/s | - | - |
| 1787574931 | 20° C | 56% | 996.3 hPa | 0 mm | 2.24 m/s, 280° | - | - |
| 1787574330 | 19.44° C | 55% | 996.5 hPa | 0 mm | 2.24 m/s, 307° | - | - |
| 1787573729 | 20° C | 52% | 996.6 hPa | 0 mm | 2.24 m/s, 61° | - | - |
| 1787573128 | 18.33° C | 62% | 996.7 hPa | 0 mm | 0 m/s | - | - |
| 1787572527 | 18.33° C | 58% | 996.7 hPa | 0 mm | 4.02 m/s, 264° | - | - |
| 1787571926 | 19.44° C | 59% | 996.6 hPa | 0 mm | 2.68 m/s, 234° | - | - |
| 1787571324 | 18.89° C | 58% | 996.6 hPa | 0 mm | 0.45 m/s, 120° | - | - |
* Rain since midnight (hover to see other rain measurements)
** Current wind speed in m/s (hover to see current wind gust speed)